createdAt,value
2023-06-29T00:01:08.851Z,14.10
2023-06-29T00:03:56.532Z,14.11
2023-06-29T00:06:24.226Z,14.12
2023-06-29T00:08:51.846Z,14.13
2023-06-29T00:11:19.552Z,14.14
2023-06-29T00:13:47.165Z,14.15
2023-06-29T00:16:16.126Z,14.16
2023-06-29T00:18:43.737Z,14.16
2023-06-29T00:21:11.586Z,14.16
2023-06-29T00:23:39.420Z,14.16
2023-06-29T00:26:07.026Z,14.15
2023-06-29T00:28:34.746Z,14.14
2023-06-29T00:31:02.482Z,14.13
2023-06-29T00:33:30.132Z,14.14
2023-06-29T00:35:57.784Z,14.14
2023-06-29T00:38:25.435Z,14.13
2023-06-29T00:40:53.134Z,14.14
2023-06-29T00:43:20.842Z,14.14
2023-06-29T00:45:48.468Z,14.16
2023-06-29T00:48:16.378Z,14.17
2023-06-29T00:50:44.024Z,14.18
2023-06-29T00:53:11.765Z,14.17
2023-06-29T00:55:40.250Z,14.17
2023-06-29T00:58:08.336Z,14.18
2023-06-29T01:00:36.159Z,14.19
2023-06-29T01:03:04.114Z,14.19
2023-06-29T01:05:31.904Z,14.20
2023-06-29T01:08:06.515Z,14.20
2023-06-29T01:10:35.956Z,14.19
2023-06-29T01:13:05.497Z,14.18
2023-06-29T01:15:34.944Z,14.17
2023-06-29T01:18:03.360Z,14.16
2023-06-29T01:20:32.816Z,14.17
2023-06-29T01:23:08.360Z,14.18
2023-06-29T01:25:36.260Z,14.21
2023-06-29T01:28:08.647Z,14.23
2023-06-29T01:30:39.099Z,14.24
2023-06-29T01:33:09.407Z,14.24
2023-06-29T01:35:37.095Z,14.23
2023-06-29T01:38:11.661Z,14.22
2023-06-29T01:40:42.097Z,14.22
2023-06-29T01:43:09.937Z,14.22
2023-06-29T01:45:38.029Z,14.22
2023-06-29T01:48:06.892Z,14.21
2023-06-29T01:50:34.602Z,14.20
2023-06-29T01:53:02.430Z,14.20
2023-06-29T01:55:30.179Z,14.20
2023-06-29T01:57:57.854Z,14.21
2023-06-29T02:00:25.604Z,14.21
2023-06-29T02:02:53.861Z,14.20
2023-06-29T02:05:22.001Z,14.20
2023-06-29T02:07:49.582Z,14.19
2023-06-29T02:10:17.327Z,14.18
2023-06-29T02:12:44.920Z,14.15
2023-06-29T02:15:12.593Z,14.15
2023-06-29T02:17:40.282Z,14.15
2023-06-29T02:20:11.735Z,14.16
2023-06-29T02:22:39.355Z,14.16
2023-06-29T02:25:11.644Z,14.16
2023-06-29T02:27:39.499Z,14.16
2023-06-29T02:30:07.718Z,14.15
2023-06-29T02:32:35.396Z,14.15
2023-06-29T02:35:03.135Z,14.13
2023-06-29T02:37:30.762Z,14.12
2023-06-29T02:39:58.394Z,14.10
2023-06-29T02:42:26.010Z,14.10
2023-06-29T02:44:53.624Z,14.11
2023-06-29T02:47:21.394Z,14.11
2023-06-29T02:49:48.999Z,14.12
2023-06-29T02:52:16.630Z,14.12
2023-06-29T02:54:44.236Z,14.13
2023-06-29T02:57:11.813Z,14.14
2023-06-29T02:59:39.735Z,14.14
2023-06-29T03:02:07.518Z,14.17
2023-06-29T03:04:35.285Z,14.19
2023-06-29T03:07:02.907Z,14.20
2023-06-29T03:09:30.538Z,14.22
2023-06-29T03:11:58.174Z,14.24
2023-06-29T03:14:25.754Z,14.27
2023-06-29T03:16:53.449Z,14.30
2023-06-29T03:19:21.212Z,14.32
2023-06-29T03:21:48.812Z,14.34
2023-06-29T03:24:16.541Z,14.37
2023-06-29T03:26:44.162Z,14.42
2023-06-29T03:29:11.780Z,14.46
2023-06-29T03:31:39.422Z,14.50
2023-06-29T03:34:07.048Z,14.51
2023-06-29T03:36:34.684Z,14.54
2023-06-29T03:39:02.313Z,14.56
2023-06-29T03:41:29.978Z,14.57
2023-06-29T03:43:57.634Z,14.60
2023-06-29T03:46:25.448Z,14.65
2023-06-29T03:48:53.269Z,14.68
2023-06-29T03:51:21.064Z,14.71
2023-06-29T03:53:48.657Z,14.73
2023-06-29T03:56:16.345Z,14.77
2023-06-29T03:58:43.970Z,14.83
2023-06-29T04:01:11.562Z,14.90
2023-06-29T04:03:39.202Z,14.97
2023-06-29T04:06:06.835Z,15.01
2023-06-29T04:08:34.750Z,15.07
2023-06-29T04:11:02.343Z,15.11
2023-06-29T04:13:29.916Z,15.16
2023-06-29T04:15:57.537Z,15.22
2023-06-29T04:18:25.168Z,15.30
2023-06-29T04:20:53.893Z,15.39
2023-06-29T04:23:21.568Z,15.43
2023-06-29T04:25:49.164Z,15.48
2023-06-29T04:28:16.787Z,15.55
2023-06-29T04:30:44.720Z,15.68
2023-06-29T04:33:12.396Z,15.75
2023-06-29T04:35:44.867Z,15.75
2023-06-29T04:38:12.970Z,15.77
2023-06-29T04:40:40.981Z,15.78
2023-06-29T04:43:08.639Z,15.83
2023-06-29T04:45:38.258Z,15.85
2023-06-29T04:48:06.115Z,15.86
2023-06-29T04:50:33.763Z,15.90
2023-06-29T04:53:01.919Z,15.97
2023-06-29T04:55:29.531Z,16.07
2023-06-29T04:57:57.175Z,16.14
2023-06-29T05:00:24.818Z,16.22
2023-06-29T05:02:52.558Z,16.32
2023-06-29T05:05:20.342Z,16.44
2023-06-29T05:07:48.400Z,16.50
2023-06-29T05:10:16.075Z,16.51
2023-06-29T05:12:43.710Z,16.51
2023-06-29T05:15:11.554Z,16.55
2023-06-29T05:17:39.203Z,16.62
2023-06-29T05:20:07.439Z,16.71
2023-06-29T05:22:35.158Z,16.74
2023-06-29T05:25:03.298Z,16.79
2023-06-29T05:27:31.088Z,16.87
2023-06-29T05:29:58.676Z,16.92
2023-06-29T05:32:26.351Z,17.01
2023-06-29T05:34:53.971Z,17.08
2023-06-29T05:37:21.984Z,17.16
2023-06-29T05:39:49.593Z,17.24
2023-06-29T05:42:17.267Z,17.28
2023-06-29T05:44:45.051Z,17.35
2023-06-29T05:47:12.778Z,17.43
2023-06-29T05:49:40.448Z,17.42
2023-06-29T05:52:08.322Z,17.42
2023-06-29T05:54:36.015Z,17.44
2023-06-29T05:57:04.284Z,17.54
2023-06-29T05:59:32.050Z,17.67
2023-06-29T06:01:59.739Z,17.82
2023-06-29T06:04:27.368Z,17.94
2023-06-29T06:06:55.029Z,17.88
2023-06-29T06:09:22.773Z,17.72
2023-06-29T06:11:50.392Z,17.63
2023-06-29T06:14:18.019Z,17.55
2023-06-29T06:16:45.682Z,17.49
2023-06-29T06:19:13.329Z,17.40
2023-06-29T06:21:40.922Z,17.46
2023-06-29T06:24:08.630Z,17.65
2023-06-29T06:26:36.315Z,17.76
2023-06-29T06:29:03.967Z,17.84
2023-06-29T06:31:33.984Z,17.92
2023-06-29T06:34:02.757Z,18.06
2023-06-29T06:36:30.647Z,18.18
2023-06-29T06:38:58.269Z,18.33
2023-06-29T06:41:26.073Z,18.40
2023-06-29T06:43:53.790Z,18.41
2023-06-29T06:46:24.660Z,18.44
2023-06-29T06:48:54.930Z,18.42
2023-06-29T06:51:22.730Z,18.51
2023-06-29T06:53:50.384Z,18.73
2023-06-29T06:56:18.224Z,18.93
2023-06-29T06:58:45.909Z,19.09
2023-06-29T07:01:13.612Z,19.31
2023-06-29T07:03:41.504Z,19.55
2023-06-29T07:06:09.208Z,19.81
2023-06-29T07:08:36.900Z,20.04
2023-06-29T07:11:04.701Z,20.37
2023-06-29T07:13:32.368Z,20.47
2023-06-29T07:16:00.061Z,20.43
2023-06-29T07:18:30.571Z,20.49
2023-06-29T07:25:59.436Z,20.75
2023-06-29T07:28:27.116Z,20.66
2023-06-29T07:30:54.866Z,20.54
2023-06-29T07:33:22.483Z,20.36
2023-06-29T07:35:50.165Z,20.14
2023-06-29T07:38:17.777Z,20.05
2023-06-29T07:40:47.881Z,19.98
2023-06-29T07:43:17.264Z,19.94
2023-06-29T07:45:45.027Z,19.84
2023-06-29T07:48:13.171Z,19.65
2023-06-29T07:50:40.998Z,19.57
2023-06-29T07:53:08.789Z,19.45
2023-06-29T07:55:36.462Z,19.33
2023-06-29T08:00:34.591Z,19.27
2023-06-29T08:03:02.470Z,19.43
2023-06-29T08:08:01.317Z,19.74
2023-06-29T08:10:29.129Z,19.96
2023-06-29T08:12:56.796Z,20.16
2023-06-29T08:15:24.405Z,20.47
2023-06-29T08:17:52.015Z,20.47
2023-06-29T08:20:19.710Z,20.57
2023-06-29T08:22:47.344Z,20.62
2023-06-29T08:25:15.275Z,20.67
2023-06-29T08:27:43.228Z,20.63
2023-06-29T08:30:11.629Z,20.51
2023-06-29T08:32:39.786Z,20.28
2023-06-29T08:35:07.812Z,19.98
2023-06-29T08:37:35.528Z,19.71
2023-06-29T08:40:03.723Z,19.61
2023-06-29T08:42:31.582Z,19.66
2023-06-29T08:44:59.269Z,19.85
2023-06-29T08:47:29.352Z,19.80
2023-06-29T08:49:58.477Z,19.94
2023-06-29T08:52:30.648Z,20.12
2023-06-29T08:54:58.871Z,20.07
2023-06-29T08:57:26.785Z,19.81
2023-06-29T08:59:54.949Z,19.46
2023-06-29T09:02:23.163Z,19.29
2023-06-29T09:04:51.656Z,19.24
2023-06-29T09:07:19.398Z,19.25
2023-06-29T09:09:47.043Z,19.37
2023-06-29T09:12:17.668Z,19.68
2023-06-29T09:14:47.821Z,20.08
2023-06-29T09:17:16.931Z,20.56
2023-06-29T09:19:57.064Z,21.01
2023-06-29T09:22:27.958Z,21.33
2023-06-29T09:25:05.280Z,21.64
2023-06-29T09:27:38.019Z,21.83
2023-06-29T09:30:06.671Z,22.08
2023-06-29T09:32:38.515Z,22.23
2023-06-29T09:35:07.815Z,22.25
2023-06-29T09:37:36.294Z,22.33
2023-06-29T09:40:05.791Z,22.37
2023-06-29T09:42:35.905Z,22.63
2023-06-29T09:45:04.414Z,23.07
2023-06-29T09:50:04.079Z,24.02
2023-06-29T09:52:45.388Z,24.61
2023-06-29T09:55:16.830Z,24.80
2023-06-29T09:57:46.267Z,24.89
2023-06-29T10:00:14.841Z,25.21
2023-06-29T10:02:43.670Z,25.75
2023-06-29T10:05:12.179Z,26.14
2023-06-29T10:07:42.846Z,26.50
2023-06-29T10:10:16.082Z,27.30
2023-06-29T10:12:44.449Z,28.45
2023-06-29T10:15:15.052Z,29.14
2023-06-29T10:18:10.350Z,29.39
2023-06-29T10:20:41.052Z,30.23
2023-06-29T10:23:11.228Z,30.85
2023-06-29T10:25:44.345Z,31.23
2023-06-29T10:28:14.112Z,31.78
2023-06-29T10:30:50.100Z,32.26
2023-06-29T10:33:23.095Z,32.33
2023-06-29T10:35:58.924Z,33.06
2023-06-29T10:38:34.655Z,34.05
2023-06-29T10:41:06.655Z,34.50
2023-06-29T10:43:56.803Z,35.13
2023-06-29T10:46:50.388Z,35.81
2023-06-29T10:49:25.127Z,35.81
2023-06-29T10:51:55.384Z,34.67
2023-06-29T10:54:24.881Z,34.22
2023-06-29T10:56:58.238Z,34.56
2023-06-29T10:59:27.354Z,33.55
2023-06-29T11:01:55.676Z,32.42
2023-06-29T11:04:23.679Z,33.05
2023-06-29T11:06:52.653Z,33.92
2023-06-29T11:09:21.689Z,35.21
2023-06-29T11:11:50.797Z,36.67
2023-06-29T11:14:19.333Z,37.47
2023-06-29T11:16:47.426Z,36.26
2023-06-29T11:19:15.777Z,35.17
2023-06-29T11:21:44.213Z,34.17
2023-06-29T11:24:12.587Z,34.96
2023-06-29T11:26:41.403Z,34.55
2023-06-29T11:29:09.793Z,33.04
2023-06-29T11:31:39.054Z,31.37
2023-06-29T11:34:13.078Z,30.51
2023-06-29T11:36:40.785Z,31.65
2023-06-29T11:39:11.576Z,32.64
2023-06-29T11:41:41.971Z,32.54
2023-06-29T11:44:12.343Z,31.58
2023-06-29T11:46:43.858Z,31.63
2023-06-29T11:49:12.372Z,32.90
2023-06-29T11:51:40.945Z,33.88
2023-06-29T11:54:09.618Z,33.36
2023-06-29T11:56:42.633Z,32.80
2023-06-29T11:59:15.502Z,34.59
2023-06-29T12:01:45.211Z,35.08
2023-06-29T12:04:15.437Z,34.17
2023-06-29T12:06:55.897Z,35.31
2023-06-29T12:09:31.675Z,36.33
2023-06-29T12:12:01.959Z,37.44
2023-06-29T12:14:35.055Z,36.94
2023-06-29T12:19:42.579Z,35.85
2023-06-29T12:22:16.257Z,37.20
2023-06-29T12:24:51.963Z,37.40
2023-06-29T12:27:21.132Z,36.66
2023-06-29T12:29:49.832Z,34.92
2023-06-29T12:32:18.972Z,34.16
2023-06-29T12:34:50.386Z,34.20
2023-06-29T12:37:19.582Z,34.73
2023-06-29T12:39:48.666Z,35.06
2023-06-29T12:42:18.008Z,34.82
2023-06-29T12:44:46.115Z,35.46
2023-06-29T12:47:14.513Z,36.73
2023-06-29T12:49:42.384Z,38.09
2023-06-29T12:52:10.625Z,37.08
2023-06-29T12:54:39.164Z,35.36
2023-06-29T12:57:08.769Z,33.97
2023-06-29T12:59:37.395Z,34.54
2023-06-29T13:02:06.070Z,37.11
2023-06-29T13:04:37.994Z,37.94
2023-06-29T13:07:07.026Z,39.06
2023-06-29T13:09:35.150Z,39.94
2023-06-29T13:12:03.980Z,41.19
2023-06-29T13:14:32.054Z,42.30
2023-06-29T13:17:00.082Z,43.08
2023-06-29T13:19:28.565Z,43.19
2023-06-29T13:21:56.228Z,42.21
2023-06-29T13:24:24.620Z,41.28
2023-06-29T13:26:52.211Z,40.80
2023-06-29T13:29:22.651Z,40.98
2023-06-29T13:31:50.620Z,40.83
2023-06-29T13:34:18.713Z,40.84
2023-06-29T13:36:46.550Z,40.97
2023-06-29T13:39:14.585Z,39.72
2023-06-29T13:41:43.672Z,39.38
2023-06-29T13:44:13.140Z,38.36
2023-06-29T13:46:41.953Z,36.91
2023-06-29T13:49:09.821Z,36.61
2023-06-29T13:51:37.566Z,37.88
2023-06-29T13:54:06.830Z,39.44
2023-06-29T13:56:36.164Z,40.48
2023-06-29T13:59:10.621Z,41.07
2023-06-29T14:01:40.608Z,41.63
2023-06-29T14:04:10.892Z,42.01
2023-06-29T14:06:43.010Z,42.92
2023-06-29T14:09:14.296Z,42.06
2023-06-29T14:11:42.329Z,40.98
2023-06-29T14:14:10.602Z,38.80
2023-06-29T14:16:38.586Z,38.23
2023-06-29T14:19:06.219Z,39.23
2023-06-29T14:21:33.882Z,40.03
2023-06-29T14:24:01.534Z,40.42
2023-06-29T14:26:29.169Z,41.19
2023-06-29T14:28:56.841Z,41.30
2023-06-29T14:31:24.650Z,41.17
2023-06-29T14:33:52.876Z,39.94
2023-06-29T14:36:21.292Z,38.57
2023-06-29T14:38:50.520Z,36.56
2023-06-29T14:41:19.399Z,37.40
2023-06-29T14:43:47.442Z,39.22
2023-06-29T14:46:15.274Z,40.66
2023-06-29T14:48:43.861Z,41.94
2023-06-29T14:51:11.981Z,43.31
2023-06-29T14:53:40.006Z,42.64
2023-06-29T14:56:08.979Z,40.35
2023-06-29T14:58:37.982Z,37.78
2023-06-29T15:01:06.475Z,38.39
2023-06-29T15:03:34.786Z,40.14
2023-06-29T15:06:02.581Z,41.03
2023-06-29T15:08:30.579Z,41.65
2023-06-29T15:10:58.517Z,41.60
2023-06-29T15:13:26.339Z,40.21
2023-06-29T15:15:57.070Z,37.88
2023-06-29T15:18:24.928Z,36.42
2023-06-29T15:20:52.697Z,34.59
2023-06-29T15:23:20.841Z,35.29
2023-06-29T15:25:49.871Z,37.17
2023-06-29T15:28:18.732Z,38.44
2023-06-29T15:30:53.409Z,39.44
2023-06-29T15:33:22.900Z,40.41
2023-06-29T15:35:51.342Z,40.97
2023-06-29T15:38:20.345Z,41.18
2023-06-29T15:40:50.950Z,40.78
2023-06-29T15:43:19.338Z,40.92
2023-06-29T15:45:48.149Z,40.99
2023-06-29T15:48:16.904Z,41.25
2023-06-29T15:50:46.014Z,39.91
2023-06-29T15:53:14.606Z,39.42
2023-06-29T15:55:43.538Z,39.64
2023-06-29T15:58:11.977Z,40.09
2023-06-29T16:00:40.206Z,40.14
2023-06-29T16:03:08.284Z,39.82
2023-06-29T16:05:36.789Z,39.79
2023-06-29T16:08:05.168Z,39.84
2023-06-29T16:10:33.039Z,39.65
2023-06-29T16:13:00.951Z,39.59
2023-06-29T16:15:30.466Z,39.28
2023-06-29T16:17:59.664Z,37.86
2023-06-29T16:20:28.288Z,36.18
2023-06-29T16:22:57.048Z,36.16
2023-06-29T16:25:25.249Z,36.51
2023-06-29T16:27:54.315Z,36.89
2023-06-29T16:30:23.123Z,37.00
2023-06-29T16:32:51.582Z,37.08
2023-06-29T16:35:19.464Z,37.11
2023-06-29T16:37:47.732Z,36.14
2023-06-29T16:40:15.789Z,35.17
2023-06-29T16:42:44.005Z,35.30
2023-06-29T16:45:12.843Z,35.22
2023-06-29T16:47:40.618Z,35.30
2023-06-29T16:50:08.912Z,35.62
2023-06-29T16:52:36.875Z,35.64
2023-06-29T16:55:05.316Z,34.57
2023-06-29T16:57:33.135Z,34.47
2023-06-29T17:00:00.909Z,34.11
2023-06-29T17:02:28.921Z,33.44
2023-06-29T17:04:57.046Z,33.63
2023-06-29T17:07:25.060Z,34.02
2023-06-29T17:09:53.163Z,34.41
2023-06-29T17:12:20.970Z,34.62
2023-06-29T17:14:48.920Z,33.07
2023-06-29T17:17:17.354Z,32.45
2023-06-29T17:19:45.612Z,32.92
2023-06-29T17:22:13.896Z,33.40
2023-06-29T17:24:42.176Z,32.75
2023-06-29T17:27:10.783Z,31.58
2023-06-29T17:29:38.745Z,30.19
2023-06-29T17:32:07.153Z,29.26
2023-06-29T17:34:34.942Z,28.41
2023-06-29T17:37:02.581Z,27.71
2023-06-29T17:39:30.290Z,27.48
2023-06-29T17:42:00.997Z,27.52
2023-06-29T17:44:28.665Z,27.06
2023-06-29T17:46:58.725Z,26.63
2023-06-29T17:49:26.394Z,26.35
2023-06-29T17:51:54.072Z,26.14
2023-06-29T17:54:22.015Z,25.89
2023-06-29T17:56:49.615Z,25.62
2023-06-29T17:59:17.216Z,25.45
2023-06-29T18:01:44.911Z,25.27
2023-06-29T18:04:12.866Z,25.09
2023-06-29T18:06:40.710Z,24.93
2023-06-29T18:09:08.326Z,24.75
2023-06-29T18:11:35.931Z,24.58
2023-06-29T18:14:03.569Z,24.42
2023-06-29T18:16:31.375Z,24.26
2023-06-29T18:18:59.125Z,24.09
2023-06-29T18:21:27.098Z,23.92
2023-06-29T18:23:54.931Z,23.74
2023-06-29T18:26:22.772Z,23.51
2023-06-29T18:28:50.662Z,23.29
2023-06-29T18:31:18.653Z,23.05
2023-06-29T18:33:46.578Z,22.80
2023-06-29T18:36:14.652Z,22.60
2023-06-29T18:38:42.376Z,22.40
2023-06-29T18:41:32.142Z,22.22
2023-06-29T18:44:01.801Z,21.99
2023-06-29T18:46:30.315Z,21.79
2023-06-29T18:48:58.354Z,21.57
2023-06-29T18:51:26.357Z,21.35
2023-06-29T18:53:54.403Z,21.12
2023-06-29T18:56:22.512Z,20.92
2023-06-29T18:58:50.783Z,20.70
2023-06-29T19:01:18.736Z,20.51
2023-06-29T19:03:46.496Z,20.29
2023-06-29T19:06:14.248Z,20.08
2023-06-29T19:08:42.138Z,19.88
2023-06-29T19:11:12.673Z,19.68
2023-06-29T19:13:40.644Z,19.50
2023-06-29T19:16:11.161Z,19.34
2023-06-29T19:18:38.913Z,19.16
2023-06-29T19:21:06.709Z,18.96
2023-06-29T19:23:34.469Z,18.79
2023-06-29T19:26:02.147Z,18.65
2023-06-29T19:28:29.949Z,18.51
2023-06-29T19:30:57.818Z,18.39
2023-06-29T19:33:25.622Z,18.26
2023-06-29T19:35:53.456Z,18.13
2023-06-29T19:38:21.517Z,18.02
2023-06-29T19:40:49.221Z,17.88
2023-06-29T19:43:16.983Z,17.77
2023-06-29T19:45:45.034Z,17.63
2023-06-29T19:48:13.051Z,17.52
2023-06-29T19:50:41.908Z,17.41
2023-06-29T19:53:09.574Z,17.31
2023-06-29T19:55:37.317Z,17.20
2023-06-29T19:58:05.203Z,17.10
2023-06-29T20:00:32.965Z,17.03
2023-06-29T20:03:00.847Z,16.98
2023-06-29T20:05:29.023Z,16.93
2023-06-29T20:07:56.880Z,16.90
2023-06-29T20:10:24.721Z,16.89
2023-06-29T20:12:52.513Z,16.86
2023-06-29T20:15:20.309Z,16.86
2023-06-29T20:17:48.137Z,16.87
2023-06-29T20:20:15.860Z,16.88
2023-06-29T20:22:43.707Z,16.88
2023-06-29T20:25:11.311Z,16.86
2023-06-29T20:27:38.932Z,16.83
2023-06-29T20:30:07.324Z,16.79
2023-06-29T20:32:35.082Z,16.72
2023-06-29T20:35:02.762Z,16.66
2023-06-29T20:37:30.414Z,16.60
2023-06-29T20:39:58.051Z,16.55
2023-06-29T20:42:25.684Z,16.49
2023-06-29T20:44:53.749Z,16.44
2023-06-29T20:47:21.653Z,16.38
2023-06-29T20:49:49.229Z,16.31
2023-06-29T20:52:16.837Z,16.25
2023-06-29T20:54:44.463Z,16.18
2023-06-29T20:57:12.126Z,16.12
2023-06-29T20:59:39.888Z,16.07
2023-06-29T21:02:07.777Z,16.03
2023-06-29T21:04:35.516Z,16.00
2023-06-29T21:07:03.298Z,15.97
2023-06-29T21:09:32.419Z,15.95
2023-06-29T21:12:00.207Z,15.92
2023-06-29T21:14:28.054Z,15.90
2023-06-29T21:16:55.969Z,15.86
2023-06-29T21:19:24.638Z,15.82
2023-06-29T21:21:52.676Z,15.78
2023-06-29T21:24:20.601Z,15.75
2023-06-29T21:26:48.383Z,15.73
2023-06-29T21:29:34.122Z,15.72
2023-06-29T21:32:10.822Z,15.71
2023-06-29T21:34:42.555Z,15.70
2023-06-29T21:37:10.906Z,15.70
2023-06-29T21:39:38.553Z,15.70
2023-06-29T21:42:07.012Z,15.68
2023-06-29T21:44:34.880Z,15.67
2023-06-29T21:47:02.552Z,15.65
2023-06-29T21:49:33.533Z,15.63
2023-06-29T21:52:01.166Z,15.62
2023-06-29T21:54:28.792Z,15.58
2023-06-29T21:56:56.480Z,15.57
2023-06-29T21:59:24.129Z,15.55
2023-06-29T22:01:51.786Z,15.55
2023-06-29T22:04:19.444Z,15.54
2023-06-29T22:06:47.661Z,15.52
2023-06-29T22:09:16.198Z,15.50
2023-06-29T22:11:44.250Z,15.48
2023-06-29T22:14:11.946Z,15.45
2023-06-29T22:16:39.561Z,15.44
2023-06-29T22:19:07.296Z,15.42
2023-06-29T22:21:35.036Z,15.41
2023-06-29T22:24:03.300Z,15.41
2023-06-29T22:26:30.951Z,15.40
2023-06-29T22:28:58.570Z,15.40
2023-06-29T22:31:26.358Z,15.39
2023-06-29T22:33:54.356Z,15.37
2023-06-29T22:36:22.175Z,15.35
2023-06-29T22:38:49.775Z,15.32
2023-06-29T22:41:17.439Z,15.31
2023-06-29T22:43:45.076Z,15.31
2023-06-29T22:46:12.798Z,15.32
2023-06-29T22:48:40.448Z,15.34
2023-06-29T22:51:08.173Z,15.37
2023-06-29T22:53:35.848Z,15.40
2023-06-29T22:56:03.775Z,15.43
2023-06-29T22:58:31.438Z,15.46
2023-06-29T23:00:58.994Z,15.49
2023-06-29T23:03:26.899Z,15.52
2023-06-29T23:05:54.606Z,15.54
2023-06-29T23:08:22.209Z,15.55
2023-06-29T23:10:49.801Z,15.57
2023-06-29T23:13:17.738Z,15.61
2023-06-29T23:15:46.679Z,15.64
2023-06-29T23:18:14.733Z,15.66
2023-06-29T23:20:42.420Z,15.68
2023-06-29T23:23:12.781Z,15.69
2023-06-29T23:25:42.132Z,15.69
2023-06-29T23:28:09.859Z,15.68
2023-06-29T23:30:37.518Z,15.67
2023-06-29T23:33:05.376Z,15.64
2023-06-29T23:35:33.039Z,15.64
2023-06-29T23:38:00.626Z,15.64
2023-06-29T23:40:28.209Z,15.64
2023-06-29T23:42:55.804Z,15.63
2023-06-29T23:45:24.094Z,15.63
2023-06-29T23:47:51.865Z,15.60
2023-06-29T23:50:19.808Z,15.58
2023-06-29T23:52:47.467Z,15.57
2023-06-29T23:55:15.092Z,15.54
2023-06-29T23:57:42.838Z,15.51
